Time;durP1;ratioP1;P1;durP2;ratioP2;P2;SDS_P1;SDS_P2;PMS_P1;PMS_P2;Temp;Humidity;BMP_temperature;BMP_pressure;BME280_temperature;BME280_humidity;BME280_pressure;Samples;Min_cycle;Max_cycle;Signal;HPM_P1;HPM_P2
2022/01/08 00:00:34;;;;;;;108.72;55.05;;;2.10;99.90;;;;;;5061005;28;20020;-79
2022/01/08 00:03:00;;;;;;;116.05;55.95;;;2.20;99.90;;;;;;5061202;28;20120;-79
2022/01/08 00:05:26;;;;;;;118.88;56.05;;;2.20;99.90;;;;;;5059842;28;20520;-80
2022/01/08 00:07:51;;;;;;;113.93;56.08;;;2.10;99.90;;;;;;5060395;28;20020;-80
2022/01/08 00:10:17;;;;;;;118.50;54.92;;;2.10;99.90;;;;;;5060304;28;20032;-80
2022/01/08 00:12:43;;;;;;;119.93;54.35;;;2.10;99.90;;;;;;5059941;28;20032;-80
2022/01/08 00:15:09;;;;;;;109.55;51.00;;;2.10;99.90;;;;;;5060513;28;20025;-80
2022/01/08 00:17:35;;;;;;;141.10;66.28;;;2.30;99.90;;;;;;5060180;28;20320;-80
2022/01/08 00:20:03;;;;;;;123.85;60.10;;;2.00;99.90;;;;;;5060038;28;20553;-79
2022/01/08 00:22:29;;;;;;;122.00;58.75;;;1.90;99.90;;;;;;5059809;28;20032;-79
2022/01/08 00:24:55;;;;;;;124.55;58.63;;;2.00;99.90;;;;;;5059223;28;20032;-80
2022/01/08 00:27:22;;;;;;;123.20;58.55;;;2.00;99.90;;;;;;5059911;28;20118;-79
2022/01/08 00:29:48;;;;;;;142.00;66.28;;;2.00;99.90;;;;;;5063534;28;20108;-79
2022/01/08 00:32:14;;;;;;;149.30;68.47;;;2.00;99.90;;;;;;5063289;28;20233;-78
2022/01/08 00:34:41;;;;;;;120.68;55.75;;;1.90;99.90;;;;;;5063361;28;20095;-78
2022/01/08 00:37:07;;;;;;;116.13;56.47;;;1.90;99.90;;;;;;5062799;28;20167;-79
2022/01/08 00:39:34;;;;;;;114.22;55.85;;;1.80;99.90;;;;;;5062896;28;20342;-80
2022/01/08 00:41:59;;;;;;;119.45;53.15;;;1.90;99.90;;;;;;5061704;28;20028;-80
2022/01/08 00:44:25;;;;;;;103.20;48.85;;;1.80;99.90;;;;;;5062999;28;20024;-79
2022/01/08 00:46:57;;;;;;;95.47;45.80;;;1.80;99.90;;;;;;5063554;28;20054;-78
2022/01/08 00:49:24;;;;;;;99.53;45.30;;;1.80;99.90;;;;;;5062109;28;20549;-79
2022/01/08 00:51:51;;;;;;;99.22;45.30;;;1.70;99.90;;;;;;5062980;28;20118;-80
2022/01/08 00:54:17;;;;;;;100.43;47.63;;;1.70;99.90;;;;;;5062336;28;20320;-79
2022/01/08 00:56:43;;;;;;;98.07;46.90;;;1.70;99.90;;;;;;5062400;28;20028;-80
2022/01/08 00:59:08;;;;;;;95.82;44.60;;;1.70;99.90;;;;;;5062957;28;20166;-79
2022/01/08 01:01:34;;;;;;;94.47;45.08;;;1.60;99.90;;;;;;5062461;28;20518;-80
2022/01/08 01:04:00;;;;;;;95.47;43.80;;;1.70;99.90;;;;;;5061103;28;20025;-80
2022/01/08 01:06:25;;;;;;;95.55;44.28;;;1.70;99.90;;;;;;5063534;28;20368;-80
2022/01/08 01:08:51;;;;;;;100.85;45.33;;;1.80;99.90;;;;;;5062392;28;20102;-79
2022/01/08 01:11:17;;;;;;;102.32;43.70;;;1.80;99.90;;;;;;5062626;28;20024;-79
2022/01/08 01:13:43;;;;;;;89.55;43.28;;;1.80;99.90;;;;;;5063185;28;20437;-79
2022/01/08 01:16:08;;;;;;;89.70;43.67;;;1.80;99.90;;;;;;5063516;28;20012;-80
2022/01/08 01:18:36;;;;;;;87.28;41.53;;;1.80;99.90;;;;;;5057985;28;20044;-79
2022/01/08 01:21:02;;;;;;;83.35;39.63;;;1.80;99.90;;;;;;5063335;28;20317;-78
2022/01/08 01:23:39;;;;;;;84.55;40.03;;;1.80;99.90;;;;;;5056830;28;20673;-79
2022/01/08 01:26:08;;;;;;;83.15;41.08;;;0.40;99.90;;;;;;5064707;28;20103;-79
2022/01/08 01:28:43;;;;;;;87.65;42.42;;;1.90;99.90;;;;;;5058188;28;20017;-79
2022/01/08 01:47:32;;;;;;;94.18;45.58;;;2.00;99.90;;;;;;5027045;28;20048;-79
2022/01/08 01:49:59;;;;;;;102.43;47.22;;;1.90;99.90;;;;;;5062796;28;20046;-81
2022/01/08 01:52:25;;;;;;;114.10;50.95;;;1.90;99.90;;;;;;5065059;28;20053;-80
2022/01/08 01:54:50;;;;;;;112.22;51.20;;;1.90;99.90;;;;;;5063954;28;20028;-79
2022/01/08 01:57:17;;;;;;;110.60;51.78;;;1.80;99.90;;;;;;5064071;28;20457;-79
2022/01/08 01:59:44;;;;;;;101.00;50.00;;;1.80;99.90;;;;;;5059937;28;20081;-78
2022/01/08 02:02:10;;;;;;;109.90;49.97;;;1.80;99.90;;;;;;5063511;28;20246;-80
2022/01/08 02:04:36;;;;;;;100.97;47.65;;;1.80;99.90;;;;;;5064525;28;20021;-79
2022/01/08 02:07:02;;;;;;;111.18;50.72;;;1.80;99.90;;;;;;5069988;28;20016;-79
2022/01/08 02:09:28;;;;;;;113.10;50.80;;;1.80;99.90;;;;;;5062338;28;20122;-80
2022/01/08 02:11:59;;;;;;;120.78;54.38;;;1.80;99.90;;;;;;5059587;28;20469;-80
2022/01/08 02:14:26;;;;;;;131.63;57.78;;;1.80;99.90;;;;;;5061678;28;20021;-79
2022/01/08 02:16:52;;;;;;;129.07;58.40;;;1.70;99.90;;;;;;5059101;28;20085;-78
2022/01/08 02:19:18;;;;;;;127.53;57.22;;;1.70;99.90;;;;;;5061813;28;20024;-80
2022/01/08 02:21:55;;;;;;;117.28;55.70;;;1.70;99.90;;;;;;5062438;28;20418;-79
2022/01/08 02:24:22;;;;;;;119.85;54.88;;;1.30;99.90;;;;;;5062238;28;20020;-79
2022/01/08 02:26:48;;;;;;;125.90;56.50;;;1.60;99.90;;;;;;5061901;28;20115;-79
2022/01/08 02:29:16;;;;;;;125.50;55.47;;;1.50;99.90;;;;;;5062799;28;20100;-79
2022/01/08 02:31:51;;;;;;;113.63;53.90;;;1.40;99.90;;;;;;5064927;28;20039;-79
2022/01/08 02:34:17;;;;;;;142.68;63.38;;;1.40;99.90;;;;;;5062201;28;20033;-78
2022/01/08 02:36:45;;;;;;;134.52;60.53;;;1.30;99.90;;;;;;5061641;28;20362;-79
2022/01/08 02:39:12;;;;;;;114.88;54.33;;;1.30;99.90;;;;;;5061395;28;20017;-79
2022/01/08 02:41:41;;;;;;;114.78;53.17;;;1.20;99.90;;;;;;5056138;28;20020;-79
2022/01/08 02:44:07;;;;;;;112.30;53.00;;;1.10;99.90;;;;;;5052086;28;20239;-79
2022/01/08 02:46:33;;;;;;;109.45;50.85;;;1.20;99.90;;;;;;5061312;28;20532;-78
2022/01/08 02:48:59;;;;;;;114.20;52.53;;;1.10;99.90;;;;;;5059530;28;20324;-78
2022/01/08 02:51:28;;;;;;;120.20;55.15;;;1.00;99.90;;;;;;5060968;28;20020;-78
2022/01/08 02:53:53;;;;;;;115.35;53.65;;;2.60;99.90;;;;;;5061259;28;20027;-79
2022/01/08 02:56:19;;;;;;;120.72;55.10;;;1.00;99.90;;;;;;5065208;28;20691;-79
2022/01/08 02:58:45;;;;;;;124.38;55.20;;;1.00;99.90;;;;;;5066549;28;20281;-79
2022/01/08 03:01:11;;;;;;;119.70;55.65;;;1.00;99.90;;;;;;5067407;28;20020;-79
2022/01/08 03:03:36;;;;;;;121.28;54.80;;;-1.00;99.90;;;;;;5067202;28;20024;-79
2022/01/08 03:06:03;;;;;;;114.80;53.38;;;1.10;99.90;;;;;;5062869;28;20062;-78
2022/01/08 03:08:29;;;;;;;131.65;56.95;;;1.10;99.90;;;;;;5053533;28;20038;-78
2022/01/08 03:10:55;;;;;;;122.47;55.45;;;1.20;99.90;;;;;;5058719;28;20239;-78
2022/01/08 03:13:20;;;;;;;109.35;52.15;;;1.20;99.90;;;;;;5060021;28;20143;-79
2022/01/08 03:15:46;;;;;;;113.03;54.53;;;1.00;99.90;;;;;;5061111;28;20017;-77
2022/01/08 03:18:12;;;;;;;117.55;53.10;;;1.10;99.90;;;;;;5061508;28;20364;-78
2022/01/08 03:20:46;;;;;;;115.95;53.65;;;1.20;99.90;;;;;;5055526;28;20321;-80
2022/01/08 03:23:16;;;;;;;120.07;53.50;;;1.20;99.90;;;;;;5052018;28;20024;-78
2022/01/08 03:25:42;;;;;;;112.07;52.17;;;1.30;99.90;;;;;;5059566;28;20107;-78
2022/01/08 03:28:08;;;;;;;123.93;56.03;;;1.30;99.90;;;;;;5060057;28;20031;-79
2022/01/08 03:30:34;;;;;;;123.70;54.53;;;1.30;99.90;;;;;;5060209;28;20024;-78
2022/01/08 03:33:00;;;;;;;109.65;53.78;;;1.30;99.90;;;;;;5057856;28;20233;-80
2022/01/08 03:35:27;;;;;;;128.40;55.40;;;1.20;99.90;;;;;;5053353;28;20026;-78
2022/01/08 03:37:52;;;;;;;118.72;53.35;;;1.20;99.90;;;;;;5059524;28;20059;-79
2022/01/08 03:40:22;;;;;;;119.53;53.22;;;1.30;99.90;;;;;;5059516;28;20506;-78
2022/01/08 03:42:47;;;;;;;127.95;56.25;;;1.20;99.90;;;;;;5059123;28;20149;-78
2022/01/08 03:45:13;;;;;;;121.15;53.95;;;1.20;99.90;;;;;;5059878;28;20058;-78
2022/01/08 03:48:04;;;;;;;127.18;56.25;;;1.20;99.90;;;;;;5059424;28;20475;-79
2022/01/08 03:50:27;;;;;;;130.40;55.05;;;1.20;99.90;;;;;;5059110;28;20027;-79
2022/01/08 03:52:54;;;;;;;133.85;58.10;;;1.10;99.90;;;;;;5058573;28;20028;-79
2022/01/08 03:55:22;;;;;;;146.45;60.95;;;1.10;99.90;;;;;;5059384;28;20028;-78
2022/01/08 03:57:48;;;;;;;308.63;111.10;;;1.10;99.90;;;;;;5058623;28;20530;-78
2022/01/08 04:00:14;;;;;;;148.57;63.58;;;1.10;99.90;;;;;;5058982;28;20021;-78
2022/01/08 04:02:40;;;;;;;151.55;64.88;;;1.10;99.90;;;;;;5058726;28;20594;-78
2022/01/08 04:05:06;;;;;;;185.23;83.13;;;1.10;99.90;;;;;;5062513;28;20289;-78
2022/01/08 04:07:32;;;;;;;140.02;64.93;;;1.20;99.90;;;;;;5063037;28;20065;-78
2022/01/08 04:09:58;;;;;;;129.02;56.13;;;1.10;99.90;;;;;;5062829;28;20060;-78
2022/01/08 04:12:34;;;;;;;123.78;53.90;;;1.20;99.90;;;;;;5062498;28;20316;-78
2022/01/08 04:15:08;;;;;;;121.20;55.08;;;1.20;99.90;;;;;;5061282;28;20335;-79
2022/01/08 04:17:33;;;;;;;117.65;51.45;;;1.30;99.90;;;;;;5062671;28;20230;-78
2022/01/08 04:19:59;;;;;;;113.10;50.78;;;1.30;99.90;;;;;;5062924;28;20023;-79
2022/01/08 04:22:26;;;;;;;119.32;52.38;;;1.30;99.90;;;;;;5062604;28;20094;-78
2022/01/08 04:24:52;;;;;;;115.78;51.47;;;1.30;99.90;;;;;;5059428;28;20056;-79
2022/01/08 04:27:17;;;;;;;116.78;51.22;;;-0.60;99.90;;;;;;5062832;28;20454;-78
2022/01/08 04:29:43;;;;;;;116.03;52.67;;;1.30;99.90;;;;;;5062891;28;20099;-78
2022/01/08 04:32:09;;;;;;;120.82;52.65;;;1.20;99.90;;;;;;5063162;28;20032;-78
2022/01/08 04:34:35;;;;;;;122.93;55.60;;;1.30;99.90;;;;;;5057649;28;20028;-78
2022/01/08 04:37:01;;;;;;;114.70;53.42;;;0.60;99.90;;;;;;5062418;28;20023;-78
2022/01/08 04:39:27;;;;;;;122.60;54.58;;;1.30;99.90;;;;;;5062676;28;20032;-80
2022/01/08 04:41:53;;;;;;;131.02;57.55;;;1.30;99.90;;;;;;5060772;28;20036;-78
2022/01/08 04:44:19;;;;;;;129.57;54.33;;;1.30;99.90;;;;;;5063303;28;20082;-78
2022/01/08 04:46:45;;;;;;;179.40;75.53;;;1.30;99.90;;;;;;5062809;28;20025;-79
2022/01/08 04:49:11;;;;;;;170.23;70.57;;;1.30;99.90;;;;;;5062866;28;20036;-78
2022/01/08 04:51:37;;;;;;;184.43;74.03;;;1.40;99.90;;;;;;5058930;28;20024;-77
2022/01/08 04:54:03;;;;;;;217.02;82.30;;;1.40;99.90;;;;;;5065279;28;20273;-79
2022/01/08 04:56:29;;;;;;;217.57;82.45;;;1.40;99.90;;;;;;5066938;28;20510;-78
2022/01/08 04:58:55;;;;;;;126.38;57.05;;;1.40;99.90;;;;;;5067969;28;20641;-78
2022/01/08 05:01:21;;;;;;;105.88;49.40;;;1.50;99.90;;;;;;5068406;28;20029;-78
2022/01/08 05:03:46;;;;;;;97.07;45.03;;;1.50;99.90;;;;;;5061611;28;20088;-78
2022/01/08 05:06:12;;;;;;;96.15;44.67;;;1.50;99.90;;;;;;5064702;28;20036;-78
2022/01/08 05:08:38;;;;;;;97.95;45.10;;;1.50;99.90;;;;;;5063616;28;20021;-79
2022/01/08 05:11:07;;;;;;;94.68;42.08;;;1.50;99.90;;;;;;5062496;28;20037;-78
2022/01/08 05:13:32;;;;;;;98.70;44.75;;;1.50;99.90;;;;;;5061907;28;20043;-76
2022/01/08 05:16:00;;;;;;;99.88;44.22;;;1.40;99.90;;;;;;5061996;28;20021;-78
2022/01/08 05:18:28;;;;;;;107.28;45.78;;;1.40;99.90;;;;;;5062059;28;20051;-78
2022/01/08 05:21:07;;;;;;;96.20;43.58;;;1.40;99.90;;;;;;5061888;28;20021;-78
2022/01/08 05:23:32;;;;;;;89.07;44.85;;;1.50;99.90;;;;;;5061490;28;20031;-78
2022/01/08 05:25:58;;;;;;;96.75;44.85;;;1.40;99.90;;;;;;5059580;28;20029;-79
2022/01/08 05:28:24;;;;;;;106.18;49.50;;;1.30;99.90;;;;;;5060962;28;20539;-78
2022/01/08 05:30:50;;;;;;;97.05;44.72;;;1.40;99.90;;;;;;5061409;28;20568;-78
2022/01/08 05:33:15;;;;;;;99.88;45.08;;;1.30;99.90;;;;;;5061554;28;20364;-78
2022/01/08 05:35:41;;;;;;;133.02;58.03;;;1.40;99.90;;;;;;5061408;28;20052;-78
2022/01/08 05:38:07;;;;;;;107.63;47.95;;;1.30;99.90;;;;;;5061074;28;20028;-78
2022/01/08 05:40:33;;;;;;;106.30;47.05;;;1.30;99.90;;;;;;5060998;28;20040;-80
2022/01/08 05:42:58;;;;;;;104.80;47.83;;;1.30;99.90;;;;;;5064870;28;20036;-80
2022/01/08 05:45:24;;;;;;;113.43;49.60;;;1.20;99.90;;;;;;5062515;28;20046;-79
2022/01/08 05:47:50;;;;;;;114.22;49.42;;;1.30;99.90;;;;;;5062942;28;20518;-78
2022/01/08 05:50:16;;;;;;;109.15;48.92;;;1.20;99.90;;;;;;5062167;28;20056;-78
2022/01/08 05:52:42;;;;;;;114.03;51.25;;;1.10;99.90;;;;;;5063134;28;20590;-78
2022/01/08 05:55:09;;;;;;;112.63;49.63;;;1.10;99.90;;;;;;5061912;28;20089;-77
2022/01/08 05:57:35;;;;;;;112.25;51.10;;;1.00;99.90;;;;;;5062446;28;20270;-79
2022/01/08 06:00:03;;;;;;;109.55;47.50;;;1.00;99.90;;;;;;5063100;28;20300;-80
2022/01/08 06:02:29;;;;;;;99.15;45.70;;;1.00;99.90;;;;;;5061664;28;20257;-78
2022/01/08 06:04:54;;;;;;;107.00;47.38;;;0.90;99.90;;;;;;5065970;28;20086;-81
2022/01/08 06:07:20;;;;;;;109.22;50.20;;;1.00;99.90;;;;;;5058684;28;20198;-79
2022/01/08 06:09:46;;;;;;;110.90;49.47;;;1.00;99.90;;;;;;5065948;28;20020;-79
2022/01/08 06:12:14;;;;;;;108.15;48.58;;;1.00;99.90;;;;;;5066523;28;20112;-80
2022/01/08 06:14:40;;;;;;;114.75;49.72;;;1.10;99.90;;;;;;5066533;28;20047;-78
2022/01/08 06:17:06;;;;;;;112.45;49.75;;;1.10;99.90;;;;;;5067407;28;20258;-79
2022/01/08 06:19:32;;;;;;;108.03;48.22;;;1.20;99.90;;;;;;5065602;28;20661;-80
2022/01/08 06:21:59;;;;;;;113.88;51.00;;;1.10;99.90;;;;;;5064369;28;20090;-79
2022/01/08 06:24:24;;;;;;;118.90;50.97;;;1.20;99.90;;;;;;5059150;28;20422;-78
2022/01/08 06:26:50;;;;;;;119.95;50.28;;;1.20;99.90;;;;;;5062400;28;20340;-79
2022/01/08 06:29:16;;;;;;;109.25;48.63;;;1.20;99.90;;;;;;5064442;28;20580;-78
2022/01/08 06:31:42;;;;;;;112.75;49.75;;;1.30;99.90;;;;;;5064024;28;20376;-78
2022/01/08 06:34:08;;;;;;;102.78;48.30;;;1.30;99.90;;;;;;5064723;28;20221;-79
2022/01/08 06:36:34;;;;;;;102.18;48.30;;;1.40;99.90;;;;;;5068010;28;20028;-78
2022/01/08 06:39:00;;;;;;;102.93;47.30;;;1.40;99.90;;;;;;5066817;28;20032;-80
2022/01/08 06:41:25;;;;;;;101.53;45.65;;;1.40;99.90;;;;;;5066145;28;20506;-79
2022/01/08 06:43:51;;;;;;;97.43;46.55;;;1.40;99.90;;;;;;5065037;28;20024;-78
2022/01/08 06:46:17;;;;;;;101.05;44.40;;;1.40;99.90;;;;;;5065651;28;20202;-78
2022/01/08 06:48:43;;;;;;;97.93;44.90;;;1.40;99.90;;;;;;5064945;28;20040;-78
2022/01/08 06:51:09;;;;;;;105.97;46.85;;;1.40;99.90;;;;;;5055710;28;20032;-78
2022/01/08 06:53:35;;;;;;;103.50;45.30;;;1.40;99.90;;;;;;5065166;28;20040;-79
2022/01/08 06:56:01;;;;;;;96.72;44.88;;;1.50;99.90;;;;;;5063214;28;20042;-78
2022/01/08 06:58:36;;;;;;;99.50;47.38;;;1.50;99.90;;;;;;5058727;28;20043;-79
2022/01/08 07:01:01;;;;;;;100.55;47.25;;;1.50;99.90;;;;;;5063307;28;20047;-78
2022/01/08 07:03:27;;;;;;;105.43;49.50;;;1.60;99.90;;;;;;5055131;28;20483;-78
2022/01/08 07:05:53;;;;;;;102.18;47.40;;;1.60;99.90;;;;;;5062788;28;20024;-79
2022/01/08 07:08:19;;;;;;;110.45;50.20;;;1.60;99.90;;;;;;5063330;28;20107;-79
2022/01/08 07:10:44;;;;;;;106.35;49.17;;;1.60;99.90;;;;;;5059159;28;20101;-78
2022/01/08 07:13:10;;;;;;;102.07;50.20;;;1.60;99.90;;;;;;5062730;28;20552;-80
2022/01/08 07:15:36;;;;;;;105.10;49.03;;;1.60;99.90;;;;;;5063564;28;20316;-79
2022/01/08 07:18:02;;;;;;;110.65;50.38;;;1.50;99.90;;;;;;5065522;28;20050;-79
2022/01/08 07:20:28;;;;;;;125.20;52.42;;;1.60;99.90;;;;;;5064307;28;20081;-79
2022/01/08 07:22:54;;;;;;;106.65;49.88;;;1.50;99.90;;;;;;5066366;28;20141;-79
2022/01/08 07:25:22;;;;;;;121.60;51.33;;;1.50;99.90;;;;;;5065841;28;20039;-80
2022/01/08 07:27:48;;;;;;;116.63;53.55;;;1.50;99.90;;;;;;5073128;28;20016;-79
2022/01/08 07:30:14;;;;;;;119.10;54.25;;;1.60;99.90;;;;;;5075148;28;20017;-77
2022/01/08 07:32:43;;;;;;;115.47;53.67;;;1.60;99.90;;;;;;5074880;28;20032;-78
2022/01/08 07:35:10;;;;;;;113.68;53.50;;;1.60;99.90;;;;;;5074087;28;20020;-78
2022/01/08 07:37:36;;;;;;;126.30;57.03;;;1.70;99.90;;;;;;5071703;28;20025;-79
2022/01/08 07:40:03;;;;;;;121.40;54.70;;;1.70;99.90;;;;;;5069515;28;20021;-77
2022/01/08 07:42:30;;;;;;;122.45;57.35;;;1.70;99.90;;;;;;5064612;28;20058;-78
2022/01/08 07:44:56;;;;;;;122.65;57.08;;;1.70;99.90;;;;;;5069829;28;20254;-78
2022/01/08 07:47:25;;;;;;;132.43;59.35;;;1.70;99.90;;;;;;5071566;28;20020;-78
2022/01/08 07:49:51;;;;;;;120.25;56.35;;;1.70;99.90;;;;;;5066306;28;20424;-77
2022/01/08 07:52:18;;;;;;;130.05;60.22;;;1.70;99.90;;;;;;5073368;28;20094;-78
2022/01/08 07:54:43;;;;;;;137.00;65.03;;;-0.90;99.90;;;;;;5071103;28;20029;-78
2022/01/08 07:57:09;;;;;;;138.40;63.25;;;1.80;99.90;;;;;;5073148;28;20168;-80
2022/01/08 07:59:42;;;;;;;128.07;58.33;;;1.90;99.90;;;;;;5064679;28;20024;-79
2022/01/08 08:02:08;;;;;;;123.57;54.95;;;2.30;99.90;;;;;;5069931;28;20024;-77
2022/01/08 08:04:34;;;;;;;118.47;55.88;;;1.90;99.90;;;;;;5068558;28;20107;-78
2022/01/08 08:07:00;;;;;;;127.70;57.58;;;2.00;99.90;;;;;;5069755;28;20052;-78
2022/01/08 08:09:28;;;;;;;120.00;56.03;;;1.90;99.90;;;;;;5068279;28;20036;-78
2022/01/08 08:11:54;;;;;;;114.90;55.08;;;1.90;99.90;;;;;;5070449;28;20032;-79
2022/01/08 08:14:19;;;;;;;110.47;52.38;;;2.00;99.90;;;;;;5069807;28;20090;-79
2022/01/08 08:16:45;;;;;;;108.95;51.75;;;2.00;99.90;;;;;;5069771;28;20320;-78
2022/01/08 08:19:11;;;;;;;105.47;50.97;;;1.80;99.90;;;;;;5067666;28;20100;-78
2022/01/08 08:21:37;;;;;;;111.63;52.17;;;1.90;99.90;;;;;;5065611;28;20275;-78
2022/01/08 08:24:05;;;;;;;113.57;54.03;;;2.00;99.90;;;;;;5069581;28;20028;-78
2022/01/08 08:26:32;;;;;;;113.00;56.08;;;2.00;99.90;;;;;;5072846;28;20096;-77
2022/01/08 08:28:58;;;;;;;107.90;51.70;;;2.10;99.90;;;;;;5069061;28;20063;-78
2022/01/08 08:31:24;;;;;;;113.60;53.53;;;2.00;99.90;;;;;;5068163;28;20028;-80
2022/01/08 08:33:50;;;;;;;118.20;55.10;;;2.10;99.90;;;;;;5067865;28;20025;-77
2022/01/08 08:36:15;;;;;;;127.47;56.78;;;2.90;99.90;;;;;;5075258;28;20021;-81
2022/01/08 08:38:41;;;;;;;118.35;56.17;;;1.80;99.90;;;;;;5075867;28;20025;-77
2022/01/08 08:41:10;;;;;;;119.45;56.03;;;1.70;99.90;;;;;;5075966;28;20100;-76
2022/01/08 08:43:36;;;;;;;118.00;54.10;;;1.70;99.90;;;;;;5074835;28;20024;-77
2022/01/08 08:46:03;;;;;;;124.25;54.80;;;1.70;99.90;;;;;;5073658;28;20104;-77
2022/01/08 08:48:29;;;;;;;122.32;54.88;;;1.60;99.90;;;;;;5074846;28;20024;-79
2022/01/08 08:50:55;;;;;;;126.75;56.58;;;1.60;99.90;;;;;;5076306;28;20075;-78
2022/01/08 08:53:21;;;;;;;131.00;57.25;;;1.70;99.90;;;;;;5066367;28;20037;-79
2022/01/08 08:55:48;;;;;;;118.75;55.20;;;1.70;99.90;;;;;;5077902;28;20024;-80
2022/01/08 08:58:14;;;;;;;122.65;56.45;;;1.80;99.90;;;;;;5077425;28;20032;-78
2022/01/08 09:00:41;;;;;;;124.05;53.50;;;1.80;99.90;;;;;;5076929;28;20024;-79
2022/01/08 09:03:08;;;;;;;116.05;52.92;;;1.80;99.90;;;;;;5064799;28;20016;-78
2022/01/08 09:05:36;;;;;;;113.53;51.90;;;1.00;99.90;;;;;;5076495;28;20028;-79
2022/01/08 09:08:04;;;;;;;106.78;49.70;;;1.90;99.90;;;;;;5070215;28;20056;-81
2022/01/08 09:10:29;;;;;;;113.50;54.88;;;1.80;99.90;;;;;;5070997;28;20039;-78
2022/01/08 09:12:57;;;;;;;107.80;47.88;;;1.90;99.90;;;;;;5077004;28;20495;-79
2022/01/08 09:15:25;;;;;;;112.32;49.20;;;1.80;99.90;;;;;;5075867;28;20027;-82
2022/01/08 09:17:53;;;;;;;107.90;47.35;;;1.80;99.90;;;;;;5073710;28;20035;-80
2022/01/08 09:20:19;;;;;;;94.10;43.35;;;1.90;99.90;;;;;;5070634;28;20573;-79
2022/01/08 09:22:49;;;;;;;98.90;45.42;;;2.00;99.90;;;;;;5073205;28;20039;-78
2022/01/08 09:25:14;;;;;;;94.55;41.03;;;2.10;99.90;;;;;;5066999;28;20024;-80
2022/01/08 09:27:40;;;;;;;82.60;39.58;;;2.10;99.90;;;;;;5074156;28;20635;-84
2022/01/08 09:30:06;;;;;;;79.85;36.15;;;2.20;99.90;;;;;;5071361;28;20016;-77
2022/01/08 09:32:33;;;;;;;89.43;41.10;;;2.10;99.90;;;;;;5060471;28;20037;-79
2022/01/08 09:34:59;;;;;;;93.93;42.53;;;2.20;99.90;;;;;;5071173;28;20683;-81
2022/01/08 09:37:25;;;;;;;98.53;44.05;;;2.10;99.90;;;;;;5072153;28;20032;-81
2022/01/08 09:39:51;;;;;;;87.82;39.78;;;2.20;99.90;;;;;;5071489;28;20213;-81
2022/01/08 09:42:16;;;;;;;90.53;38.08;;;2.00;99.90;;;;;;5074371;28;20044;-80
2022/01/08 09:44:44;;;;;;;86.50;39.78;;;2.10;99.90;;;;;;5072692;28;20344;-79
2022/01/08 09:47:14;;;;;;;82.20;38.20;;;2.10;99.90;;;;;;5075554;28;20028;-80
2022/01/08 09:49:40;;;;;;;81.45;37.88;;;2.10;99.90;;;;;;5078311;28;20031;-80
2022/01/08 09:52:07;;;;;;;80.40;37.30;;;2.10;99.90;;;;;;5080095;28;20045;-79
2022/01/08 09:54:34;;;;;;;87.95;40.65;;;2.20;99.90;;;;;;5070449;28;20121;-81
2022/01/08 09:57:01;;;;;;;88.97;41.40;;;2.30;99.90;;;;;;5080532;28;20051;-77
2022/01/08 09:59:28;;;;;;;97.88;47.13;;;2.30;99.90;;;;;;5078456;28;20028;-78
2022/01/08 10:01:59;;;;;;;93.03;44.42;;;2.10;99.90;;;;;;5073511;28;20047;-82
2022/01/08 10:04:27;;;;;;;88.80;40.70;;;2.20;99.90;;;;;;5072362;28;20063;-79
2022/01/08 10:07:13;;;;;;;92.70;43.88;;;2.10;99.90;;;;;;5070543;28;20173;-81
2022/01/08 10:10:17;;;;;;;86.97;40.42;;;2.10;99.90;;;;;;5069497;28;20092;-80
2022/01/08 10:12:58;;;;;;;90.93;40.63;;;2.10;99.90;;;;;;5072901;28;20071;-79
2022/01/08 10:18:26;;;;;;;100.03;44.05;;;0.30;99.90;;;;;;5068935;28;20031;-80
2022/01/08 10:20:55;;;;;;;98.00;44.40;;;1.80;99.90;;;;;;5063560;28;20016;-81
2022/01/08 10:23:23;;;;;;;109.70;49.58;;;1.80;99.90;;;;;;5069635;28;20099;-77
2022/01/08 10:25:56;;;;;;;113.38;48.95;;;1.80;99.90;;;;;;5070752;28;20096;-78
2022/01/08 10:28:41;;;;;;;117.68;51.65;;;1.80;99.90;;;;;;5071478;28;20097;-78
2022/01/08 10:31:08;;;;;;;130.73;56.53;;;1.90;99.90;;;;;;5078192;28;20029;-78
2022/01/08 10:33:33;;;;;;;239.32;94.28;;;2.00;99.90;;;;;;5077870;28;20044;-79
2022/01/08 10:35:59;;;;;;;174.82;71.53;;;2.00;99.90;;;;;;5081682;28;20008;-78
2022/01/08 10:38:32;;;;;;;149.73;65.85;;;1.90;99.90;;;;;;5071703;28;20020;-78
2022/01/08 10:40:59;;;;;;;140.18;64.00;;;2.00;99.90;;;;;;5072323;28;20023;-80
2022/01/08 10:43:32;;;;;;;173.48;72.15;;;1.70;99.90;;;;;;5071801;28;20058;-79
2022/01/08 10:46:35;;;;;;;270.92;115.10;;;1.70;99.90;;;;;;5078594;28;20025;-80
2022/01/08 10:49:03;;;;;;;161.40;71.18;;;1.90;99.90;;;;;;5024671;28;20682;-79
2022/01/08 10:51:39;;;;;;;153.80;69.25;;;2.00;99.90;;;;;;5039370;28;20055;-78
2022/01/08 10:54:11;;;;;;;165.80;71.20;;;2.00;99.90;;;;;;5040872;28;20045;-80
2022/01/08 10:56:38;;;;;;;145.80;69.65;;;2.00;99.90;;;;;;5041086;28;20060;-80
2022/01/08 10:59:22;;;;;;;142.00;67.45;;;2.00;99.90;;;;;;5056977;28;20082;-78
2022/01/08 11:01:59;;;;;;;116.88;54.80;;;2.10;99.90;;;;;;5052087;28;20061;-81
2022/01/08 11:04:38;;;;;;;130.45;58.47;;;2.10;99.90;;;;;;5037768;28;20025;-79
2022/01/08 11:07:08;;;;;;;120.20;57.45;;;2.10;99.90;;;;;;5049422;28;20164;-78
2022/01/08 11:09:36;;;;;;;129.50;59.65;;;2.00;99.90;;;;;;5046167;28;20045;-81
2022/01/08 11:12:04;;;;;;;109.68;55.03;;;2.00;99.90;;;;;;5046217;28;20037;-78
2022/01/08 11:17:37;;;;;;;114.88;54.33;;;1.80;99.90;;;;;;5045575;28;20167;-80
2022/01/08 11:20:16;;;;;;;129.10;59.72;;;1.90;99.90;;;;;;5055605;28;20028;-78
2022/01/08 11:22:47;;;;;;;106.32;54.00;;;1.90;99.90;;;;;;5067431;28;20116;-78
2022/01/08 11:25:21;;;;;;;105.15;49.03;;;1.90;99.90;;;;;;5068296;28;20024;-76
2022/01/08 11:27:57;;;;;;;105.72;51.28;;;2.00;99.90;;;;;;5067859;28;20024;-76
2022/01/08 11:30:27;;;;;;;112.43;53.95;;;2.00;99.90;;;;;;5066405;28;20020;-80
2022/01/08 11:32:59;;;;;;;123.93;56.92;;;2.10;99.90;;;;;;5065053;28;20021;-80
2022/01/08 11:35:30;;;;;;;106.68;51.25;;;2.20;99.90;;;;;;5062639;28;20135;-80
2022/01/08 11:37:56;;;;;;;103.93;48.75;;;2.00;99.90;;;;;;5044097;28;20033;-78
2022/01/08 11:40:26;;;;;;;115.50;52.70;;;3.20;99.90;;;;;;5063933;28;20040;-77
2022/01/08 11:42:52;;;;;;;102.25;52.53;;;2.30;99.90;;;;;;5063186;28;20072;-81
2022/01/08 11:45:32;;;;;;;104.70;49.10;;;2.20;99.90;;;;;;5044263;28;20021;-78
2022/01/08 11:47:59;;;;;;;96.13;47.55;;;2.30;99.90;;;;;;5061450;28;20028;-78
2022/01/08 11:50:32;;;;;;;98.63;49.25;;;2.40;99.90;;;;;;5062823;28;20020;-78
2022/01/08 11:53:31;;;;;;;96.20;48.17;;;2.50;99.90;;;;;;5062906;28;20037;-77
2022/01/08 11:56:03;;;;;;;189.57;70.90;;;2.70;99.90;;;;;;5008491;28;20029;-77
2022/01/08 11:58:34;;;;;;;106.90;49.90;;;2.70;99.90;;;;;;5021596;28;20511;-77
2022/01/08 12:01:20;;;;;;;93.78;47.70;;;2.80;99.60;;;;;;5021445;28;20698;-78
2022/01/08 12:03:51;;;;;;;74.65;39.05;;;3.00;99.30;;;;;;5006925;28;20029;-78
2022/01/08 12:06:29;;;;;;;93.28;47.80;;;3.10;99.00;;;;;;5022452;28;20029;-78
2022/01/08 12:11:47;;;;;;;105.45;48.85;;;3.30;98.70;;;;;;5026007;28;20468;-80
2022/01/08 12:14:16;;;;;;;98.55;48.83;;;3.40;98.20;;;;;;5026585;28;20033;-78
2022/01/08 12:16:44;;;;;;;94.55;47.95;;;3.40;98.00;;;;;;5025943;28;20029;-78
2022/01/08 12:19:28;;;;;;;97.35;48.45;;;3.40;98.10;;;;;;5025219;28;20091;-79
2022/01/08 12:21:54;;;;;;;114.10;54.40;;;3.50;98.20;;;;;;5024201;28;20143;-79
2022/01/08 12:24:25;;;;;;;129.45;62.97;;;3.50;98.00;;;;;;5028160;28;20045;-76
2022/01/08 12:26:52;;;;;;;157.25;74.10;;;3.70;97.80;;;;;;5019764;28;20214;-78
2022/01/08 12:29:36;;;;;;;115.90;59.42;;;3.70;98.10;;;;;;5020783;28;20179;-78
2022/01/08 12:32:34;;;;;;;120.15;60.47;;;3.70;97.80;;;;;;5050198;28;20036;-78
2022/01/08 12:35:15;;;;;;;120.88;58.08;;;3.80;97.30;;;;;;5063005;28;20109;-78
2022/01/08 12:37:46;;;;;;;119.20;57.00;;;3.80;97.70;;;;;;5045543;28;20008;-79
2022/01/08 12:40:31;;;;;;;108.28;54.30;;;3.90;97.70;;;;;;5063309;28;20020;-78
2022/01/08 12:42:58;;;;;;;119.30;57.30;;;3.90;97.40;;;;;;5063576;28;20131;-78
2022/01/08 12:45:29;;;;;;;111.95;55.97;;;4.00;97.00;;;;;;5063104;28;20016;-78
2022/01/08 12:48:08;;;;;;;114.45;56.40;;;4.00;97.10;;;;;;5062339;28;20097;-78
2022/01/08 12:50:38;;;;;;;138.90;66.47;;;4.10;96.90;;;;;;5045236;28;20020;-78
2022/01/08 12:53:11;;;;;;;146.23;74.90;;;4.20;96.70;;;;;;5062609;28;20568;-77
2022/01/08 12:55:53;;;;;;;135.68;68.00;;;4.00;97.00;;;;;;5063668;28;20195;-78
2022/01/08 12:58:25;;;;;;;126.30;61.67;;;4.10;97.20;;;;;;5077670;28;20116;-78